Disclaimer

Please do not use the information listed here in-flight or in-navigation, as they are not provided to us by the airports but are provided by volunteers, so they might be outdated.

Search


Regions


Airport information page

Radio informations:
TWR/APP - 118.7 MHz
RDO - 122.3 MHz
RESISTENCIA - 119.5 MHz

Airport informations:
Latitude: 27° 26' 59.95" S
Longitude: 059° 03' 22.05" W
Elevation: 173 feet - 53 meters
Operating hours: 24 hour operations
Operating agency: Civil government, landing fees and diplomatic clearance may be required
Timezone: UTC-3
Fuel: Jet A1, without icing nhibitor.

100/130 MIL Spec, low lead, aviation gasoline (BLUE)

Runway information:
03/21 - 9088 x 147 feet< - >2770 x 45 meters

Recent METARs:
SARE 210600Z 05004KT CAVOK 20/18 Q1011
SARE 210700Z 06004KT CAVOK 20/18 Q1012
SARE 210700Z 06004KT CAVOK 20/18 Q1012

Airport on the map: